WetterOnline ( https://www.wetteronline.de )

Wetter aktuell Großer Arber

Aktuelles Wetter: Großer Arber (1446m)

6-stündlich | Neueste Meldungen
Ortszeit Temperatur Wetter
Di, 11.05. 8:00 13.6° C bedeckt
Di, 11.05. 2:00 14.3° C wolkig
Mo, 10.05. 20:00 16.4° C wolkig
Mo, 10.05. 14:00 19.7° C wolkenlos
Mo, 10.05. 8:00 13.2° C wolkig
Mo, 10.05. 2:00 13.7° C bewölkt
So, 09.05. 20:00 14.8° C leicht bewölkt
So, 09.05. 14:00 16.3° C fast wolkenlos
Ortszeit Temperatur Wetter
Di, 11.05. 13:00 17.4° C fast wolkenlos
Di, 11.05. 12:50 17.4° C fast wolkenlos
Di, 11.05. 12:40 19.0° C fast wolkenlos
Di, 11.05. 12:30 18.5° C leicht bewölkt
Di, 11.05. 12:20 18.5° C leicht bewölkt
Di, 11.05. 12:10 17.6° C leicht bewölkt
Di, 11.05. 12:00 17.4° C leicht bewölkt
Di, 11.05. 11:30 17.3° C fast wolkenlos
Di, 11.05. 11:00 16.6° C wolkenlos
Di, 11.05. 10:30 16.6° C fast wolkenlos
Di, 11.05. 10:00 15.7° C leicht bewölkt
Ortszeit Relative Feuchte Sichtweite
Di, 11.05. 8:00 47% >70 km
Di, 11.05. 2:00 54% >70 km
Mo, 10.05. 20:00 40% >70 km
Mo, 10.05. 14:00 34% >70 km
Mo, 10.05. 8:00 42% 55 km
Mo, 10.05. 2:00 45% >70 km
So, 09.05. 20:00 34% >70 km
So, 09.05. 14:00 42% >70 km
Ortszeit Relative Feuchte Sichtweite
Di, 11.05. 13:00 38% >70 km
Di, 11.05. 12:50 38% -
Di, 11.05. 12:40 38% -
Di, 11.05. 12:30 37% 55 km
Di, 11.05. 12:20 37% -
Di, 11.05. 12:10 39% -
Di, 11.05. 12:00 39% >70 km
Di, 11.05. 11:30 39% >70 km
Di, 11.05. 11:00 39% >70 km
Di, 11.05. 10:30 39% 60 km
Di, 11.05. 10:00 40% 55 km
Ortszeit Niederschlagsmenge Niederschlagsart
Di, 11.05. 8:00 0.0 l/m2 in 12 Std. -
Di, 11.05. 2:00 0.0 l/m2 in 6 Std. -
Mo, 10.05. 20:00 0.0 l/m2 in 12 Std. -
Mo, 10.05. 14:00 0.0 l/m2 in 6 Std. -
Mo, 10.05. 8:00 0.1 l/m2 in 12 Std. Niederschlag
Mo, 10.05. 2:00 0.0 l/m2 in 6 Std. -
So, 09.05. 20:00 0.0 l/m2 in 12 Std. -
So, 09.05. 14:00 0.0 l/m2 in 6 Std. -
Ortszeit Niederschlagsmenge Niederschlagsart
Di, 11.05. 13:00 0.1 l/m2 in 1 Std. Niederschlag
Di, 11.05. 12:50 keine Meldung -
Di, 11.05. 12:40 keine Meldung -
Di, 11.05. 12:30 0.1 l/m2 in 1 Std. Regen
Di, 11.05. 12:20 keine Meldung -
Di, 11.05. 12:10 keine Meldung -
Di, 11.05. 12:00 0.0 l/m2 in 1 Std. -
Di, 11.05. 11:30 0.0 l/m2 in 1 Std. -
Di, 11.05. 11:00 0.0 l/m2 in 1 Std. -
Di, 11.05. 10:30 0.0 l/m2 in 1 Std. -
Di, 11.05. 10:00 0.0 l/m2 in 1 Std. -
Ortszeit Stärke Spitze Richtung
km/h Bft. km/h Grad Sektor
Di, 11.05. 8:00 22 4 44 170° S
Di, 11.05. 2:00 32 5 50 150° SO
Mo, 10.05. 20:00 22 4 33 150° SO
Mo, 10.05. 14:00 11 2 32 180° S
Mo, 10.05. 8:00 17 3 50 190° S
Mo, 10.05. 2:00 39 6 54 180° S
So, 09.05. 20:00 28 4 39 140° SO
So, 09.05. 14:00 13 3 37 150° SO
Ortszeit Stärke Spitze Richtung
km/h Bft. km/h Grad Sektor
Di, 11.05. 13:00 22 4 40 160° S
Di, 11.05. 12:50 22 4 - 160° S
Di, 11.05. 12:40 22 4 - 160° S
Di, 11.05. 12:30 22 4 41 160° S
Di, 11.05. 12:20 22 4 - 160° S
Di, 11.05. 12:10 24 4 - 180° S
Di, 11.05. 12:00 20 4 44 180° S
Di, 11.05. 11:30 22 4 43 170° S
Di, 11.05. 11:00 22 4 40 180° S
Di, 11.05. 10:30 22 4 40 160° S
Di, 11.05. 10:00 22 4 36 180° S
Ortszeit Untergrenze Bedeckung Gattung
total tief tief mittel hoch
Di, 11.05. 8:00 4500 m 8/8 8/8 - - -
Di, 11.05. 2:00 6600 m 6/8 5/8 - - -
Mo, 10.05. 20:00 6300 m 7/8 5/8 - - -
Mo, 10.05. 14:00 - 0/8 0/8 - - -
Mo, 10.05. 8:00 8400 m 7/8 0/8 - - -
Mo, 10.05. 2:00 6600 m 8/8 7/8 - - -
So, 09.05. 20:00 10500 m 7/8 0/8 - - -
So, 09.05. 14:00 10500 m 2/8 0/8 - - -
Ortszeit Bedeckungsgrad in Achtel und Wolkenuntergrenze
Di, 11.05. 13:00 2(7500m)
Di, 11.05. 12:50 2(7500m)
Di, 11.05. 12:40 1(7200m)
Di, 11.05. 12:30 4(7200m)
Di, 11.05. 12:20 4(7200m)
Di, 11.05. 12:10 6(7500m)
Di, 11.05. 12:00 3(7500m)
Di, 11.05. 11:30 2(8100m)
Di, 11.05. 11:00 keine Wolken
Di, 11.05. 10:30 1(4800m)
Di, 11.05. 10:00 4(4200m) 4(5400m)
Ortszeit Stationsdruck (hPa) Tendenz (hPa in 3 Std.)
Di, 11.05. 8:00 849 - 0,7
Di, 11.05. 2:00 850 - 1,3
Mo, 10.05. 20:00 852 - 0,5
Mo, 10.05. 14:00 853 - 0,1
Mo, 10.05. 8:00 852 + 0,9
Mo, 10.05. 2:00 851 - 0,2
So, 09.05. 20:00 852 - 1,8
So, 09.05. 14:00 855 - 0,4
Ortszeit Stationsdruck (hPa) Tendenz (hPa in 3 Std.)
Di, 11.05. 13:00 848 - 0,5
Di, 11.05. 12:50 848 keine Meldung
Di, 11.05. 12:40 849 keine Meldung
Di, 11.05. 12:30 849 - 0,3
Di, 11.05. 12:20 849 keine Meldung
Di, 11.05. 12:10 849 keine Meldung
Di, 11.05. 12:00 849 - 0,4
Di, 11.05. 11:30 849 - 0,2
Di, 11.05. 11:00 849 + 0,2
Di, 11.05. 10:30 849 + 0,1
Di, 11.05. 10:00 849 0,0
Ortszeit Schneehöhe (cm)
Di, 11.05. 8:00 54
Di, 11.05. 2:00 58
Mo, 10.05. 20:00 61
Mo, 10.05. 14:00 66
Mo, 10.05. 8:00 71
Mo, 10.05. 2:00 74
So, 09.05. 20:00 77
So, 09.05. 14:00 81
Ortszeit Schneehöhe (cm)
Di, 11.05. 13:00 49
Di, 11.05. 12:50 49
Di, 11.05. 12:40 49
Di, 11.05. 12:30 50
Di, 11.05. 12:20 50
Di, 11.05. 12:10 50
Di, 11.05. 12:00 50
Di, 11.05. 11:30 50
Di, 11.05. 11:00 51
Di, 11.05. 10:30 52
Di, 11.05. 10:00 52
Link zu dieser Seite / Seite empfehlen

Das Wetter in ...